sensor_id;sensor_type;location;lat;lon;timestamp;P1;durP1;ratioP1;P2;durP2;ratioP2
33844;SDS011;20145;43.118;25.694;2023-05-18T00:01:57;13.30;;;7.60;;
33844;SDS011;20145;43.118;25.694;2023-05-18T00:04:26;9.68;;;8.65;;
33844;SDS011;20145;43.118;25.694;2023-05-18T00:06:53;11.60;;;9.13;;
33844;SDS011;20145;43.118;25.694;2023-05-18T00:09:24;18.10;;;8.50;;
33844;SDS011;20145;43.118;25.694;2023-05-18T00:11:51;12.15;;;8.25;;
33844;SDS011;20145;43.118;25.694;2023-05-18T00:14:17;11.18;;;8.52;;
33844;SDS011;20145;43.118;25.694;2023-05-18T00:16:43;9.32;;;7.93;;
33844;SDS011;20145;43.118;25.694;2023-05-18T00:19:08;12.57;;;7.55;;
33844;SDS011;20145;43.118;25.694;2023-05-18T00:21:34;9.93;;;8.82;;
33844;SDS011;20145;43.118;25.694;2023-05-18T00:24:00;10.13;;;8.88;;
33844;SDS011;20145;43.118;25.694;2023-05-18T00:26:25;14.27;;;8.85;;
33844;SDS011;20145;43.118;25.694;2023-05-18T00:28:51;14.30;;;8.85;;
33844;SDS011;20145;43.118;25.694;2023-05-18T00:31:17;15.10;;;9.57;;
33844;SDS011;20145;43.118;25.694;2023-05-18T00:33:42;12.43;;;9.48;;
33844;SDS011;20145;43.118;25.694;2023-05-18T00:36:11;12.73;;;9.50;;
33844;SDS011;20145;43.118;25.694;2023-05-18T00:38:37;10.05;;;8.50;;
33844;SDS011;20145;43.118;25.694;2023-05-18T00:41:02;13.05;;;8.63;;
33844;SDS011;20145;43.118;25.694;2023-05-18T00:43:28;12.60;;;9.07;;
33844;SDS011;20145;43.118;25.694;2023-05-18T00:45:53;13.43;;;8.73;;
33844;SDS011;20145;43.118;25.694;2023-05-18T00:48:19;11.93;;;9.02;;
33844;SDS011;20145;43.118;25.694;2023-05-18T00:50:44;13.25;;;9.27;;
33844;SDS011;20145;43.118;25.694;2023-05-18T00:53:10;13.15;;;8.85;;
33844;SDS011;20145;43.118;25.694;2023-05-18T00:55:36;17.45;;;9.15;;
33844;SDS011;20145;43.118;25.694;2023-05-18T00:58:02;13.38;;;8.75;;
33844;SDS011;20145;43.118;25.694;2023-05-18T01:00:29;10.35;;;9.35;;
33844;SDS011;20145;43.118;25.694;2023-05-18T01:02:55;11.07;;;9.73;;
33844;SDS011;20145;43.118;25.694;2023-05-18T01:05:21;12.60;;;9.55;;
33844;SDS011;20145;43.118;25.694;2023-05-18T01:07:47;16.42;;;9.88;;
33844;SDS011;20145;43.118;25.694;2023-05-18T01:10:15;12.23;;;9.50;;
33844;SDS011;20145;43.118;25.694;2023-05-18T01:15:50;13.15;;;9.80;;
33844;SDS011;20145;43.118;25.694;2023-05-18T01:18:22;13.15;;;8.43;;
33844;SDS011;20145;43.118;25.694;2023-05-18T01:26:28;10.80;;;9.30;;
33844;SDS011;20145;43.118;25.694;2023-05-18T01:29:05;15.02;;;10.57;;
33844;SDS011;20145;43.118;25.694;2023-05-18T01:31:33;13.57;;;10.43;;
33844;SDS011;20145;43.118;25.694;2023-05-18T01:33:58;22.10;;;10.88;;
33844;SDS011;20145;43.118;25.694;2023-05-18T01:36:24;11.68;;;10.48;;
33844;SDS011;20145;43.118;25.694;2023-05-18T01:38:49;12.77;;;10.70;;
33844;SDS011;20145;43.118;25.694;2023-05-18T01:49:21;13.25;;;11.15;;
33844;SDS011;20145;43.118;25.694;2023-05-18T01:51:54;12.27;;;10.65;;
33844;SDS011;20145;43.118;25.694;2023-05-18T01:54:22;18.58;;;11.27;;
33844;SDS011;20145;43.118;25.694;2023-05-18T01:56:49;15.35;;;11.70;;
33844;SDS011;20145;43.118;25.694;2023-05-18T01:59:18;16.10;;;12.18;;
33844;SDS011;20145;43.118;25.694;2023-05-18T02:01:44;16.95;;;12.02;;
33844;SDS011;20145;43.118;25.694;2023-05-18T02:04:10;12.60;;;11.30;;
33844;SDS011;20145;43.118;25.694;2023-05-18T02:06:36;13.73;;;11.50;;
33844;SDS011;20145;43.118;25.694;2023-05-18T02:09:02;13.60;;;11.73;;
33844;SDS011;20145;43.118;25.694;2023-05-18T02:11:29;15.55;;;12.20;;
33844;SDS011;20145;43.118;25.694;2023-05-18T02:13:55;21.90;;;13.57;;
33844;SDS011;20145;43.118;25.694;2023-05-18T02:16:20;17.30;;;14.05;;
33844;SDS011;20145;43.118;25.694;2023-05-18T02:18:46;15.57;;;13.70;;
33844;SDS011;20145;43.118;25.694;2023-05-18T02:21:11;15.57;;;13.13;;
33844;SDS011;20145;43.118;25.694;2023-05-18T02:23:38;14.93;;;12.57;;
33844;SDS011;20145;43.118;25.694;2023-05-18T02:26:04;16.67;;;12.73;;
33844;SDS011;20145;43.118;25.694;2023-05-18T02:28:30;15.52;;;12.68;;
33844;SDS011;20145;43.118;25.694;2023-05-18T02:31:05;16.13;;;12.77;;
33844;SDS011;20145;43.118;25.694;2023-05-18T02:33:36;14.45;;;12.88;;
33844;SDS011;20145;43.118;25.694;2023-05-18T02:36:07;17.42;;;13.00;;
33844;SDS011;20145;43.118;25.694;2023-05-18T02:38:37;18.42;;;13.43;;
33844;SDS011;20145;43.118;25.694;2023-05-18T02:41:05;16.13;;;13.52;;
33844;SDS011;20145;43.118;25.694;2023-05-18T02:43:31;15.25;;;13.38;;
33844;SDS011;20145;43.118;25.694;2023-05-18T02:45:56;15.02;;;12.75;;
33844;SDS011;20145;43.118;25.694;2023-05-18T02:48:22;14.25;;;12.35;;
33844;SDS011;20145;43.118;25.694;2023-05-18T02:50:48;14.93;;;13.27;;
33844;SDS011;20145;43.118;25.694;2023-05-18T02:53:13;17.15;;;14.43;;
33844;SDS011;20145;43.118;25.694;2023-05-18T02:55:39;21.48;;;14.25;;
33844;SDS011;20145;43.118;25.694;2023-05-18T02:58:05;17.17;;;14.15;;
33844;SDS011;20145;43.118;25.694;2023-05-18T03:00:31;15.63;;;14.00;;
33844;SDS011;20145;43.118;25.694;2023-05-18T03:02:57;17.42;;;13.63;;
33844;SDS011;20145;43.118;25.694;2023-05-18T03:05:24;18.00;;;13.98;;
33844;SDS011;20145;43.118;25.694;2023-05-18T03:07:50;20.08;;;14.23;;
33844;SDS011;20145;43.118;25.694;2023-05-18T03:10:17;17.00;;;13.35;;
33844;SDS011;20145;43.118;25.694;2023-05-18T03:12:43;19.23;;;14.20;;
33844;SDS011;20145;43.118;25.694;2023-05-18T03:15:09;16.20;;;13.85;;
33844;SDS011;20145;43.118;25.694;2023-05-18T03:17:36;15.57;;;13.48;;
33844;SDS011;20145;43.118;25.694;2023-05-18T03:20:02;17.10;;;13.15;;
33844;SDS011;20145;43.118;25.694;2023-05-18T03:22:29;14.95;;;13.13;;
33844;SDS011;20145;43.118;25.694;2023-05-18T03:24:54;16.35;;;13.45;;
33844;SDS011;20145;43.118;25.694;2023-05-18T03:27:20;31.58;;;15.27;;
33844;SDS011;20145;43.118;25.694;2023-05-18T03:29:50;19.05;;;13.68;;
33844;SDS011;20145;43.118;25.694;2023-05-18T03:32:20;16.88;;;13.52;;
33844;SDS011;20145;43.118;25.694;2023-05-18T03:34:45;15.40;;;13.80;;
33844;SDS011;20145;43.118;25.694;2023-05-18T03:37:12;22.52;;;13.95;;
33844;SDS011;20145;43.118;25.694;2023-05-18T03:39:40;17.95;;;13.75;;
33844;SDS011;20145;43.118;25.694;2023-05-18T03:42:06;17.05;;;13.77;;
33844;SDS011;20145;43.118;25.694;2023-05-18T03:44:31;17.23;;;13.77;;
33844;SDS011;20145;43.118;25.694;2023-05-18T03:46:57;17.33;;;14.70;;
33844;SDS011;20145;43.118;25.694;2023-05-18T03:49:23;18.90;;;13.90;;
33844;SDS011;20145;43.118;25.694;2023-05-18T03:51:48;15.75;;;13.63;;
33844;SDS011;20145;43.118;25.694;2023-05-18T03:54:14;22.58;;;14.52;;
33844;SDS011;20145;43.118;25.694;2023-05-18T03:56:39;15.73;;;14.20;;
33844;SDS011;20145;43.118;25.694;2023-05-18T03:59:06;23.30;;;14.65;;
33844;SDS011;20145;43.118;25.694;2023-05-18T04:01:32;17.90;;;15.10;;
33844;SDS011;20145;43.118;25.694;2023-05-18T04:03:58;17.17;;;15.48;;
33844;SDS011;20145;43.118;25.694;2023-05-18T04:06:25;18.60;;;14.18;;
33844;SDS011;20145;43.118;25.694;2023-05-18T04:08:51;20.42;;;15.07;;
33844;SDS011;20145;43.118;25.694;2023-05-18T04:11:17;18.33;;;14.50;;
33844;SDS011;20145;43.118;25.694;2023-05-18T04:13:42;16.25;;;13.85;;
33844;SDS011;20145;43.118;25.694;2023-05-18T04:16:08;20.75;;;15.68;;
33844;SDS011;20145;43.118;25.694;2023-05-18T04:18:40;25.83;;;21.65;;
33844;SDS011;20145;43.118;25.694;2023-05-18T04:21:12;27.60;;;20.65;;
33844;SDS011;20145;43.118;25.694;2023-05-18T04:23:41;26.30;;;21.10;;
33844;SDS011;20145;43.118;25.694;2023-05-18T04:26:06;22.38;;;20.08;;
33844;SDS011;20145;43.118;25.694;2023-05-18T04:28:33;21.33;;;18.80;;
33844;SDS011;20145;43.118;25.694;2023-05-18T04:30:59;21.60;;;19.02;;
33844;SDS011;20145;43.118;25.694;2023-05-18T04:33:26;21.75;;;18.13;;
33844;SDS011;20145;43.118;25.694;2023-05-18T04:35:55;25.25;;;15.32;;
33844;SDS011;20145;43.118;25.694;2023-05-18T04:38:22;25.10;;;16.70;;
33844;SDS011;20145;43.118;25.694;2023-05-18T04:40:49;22.88;;;15.63;;
33844;SDS011;20145;43.118;25.694;2023-05-18T04:43:18;19.55;;;14.55;;
33844;SDS011;20145;43.118;25.694;2023-05-18T04:45:45;18.85;;;14.45;;
33844;SDS011;20145;43.118;25.694;2023-05-18T04:48:11;20.58;;;14.27;;
33844;SDS011;20145;43.118;25.694;2023-05-18T04:50:38;20.15;;;14.40;;
33844;SDS011;20145;43.118;25.694;2023-05-18T04:53:04;15.95;;;13.85;;
33844;SDS011;20145;43.118;25.694;2023-05-18T04:55:33;17.90;;;13.18;;
33844;SDS011;20145;43.118;25.694;2023-05-18T04:57:59;19.55;;;13.02;;
33844;SDS011;20145;43.118;25.694;2023-05-18T05:00:26;13.82;;;11.55;;
33844;SDS011;20145;43.118;25.694;2023-05-18T05:02:53;19.52;;;11.95;;
33844;SDS011;20145;43.118;25.694;2023-05-18T05:05:23;16.15;;;11.25;;
33844;SDS011;20145;43.118;25.694;2023-05-18T05:07:50;13.77;;;11.88;;
33844;SDS011;20145;43.118;25.694;2023-05-18T05:10:17;16.45;;;10.95;;
33844;SDS011;20145;43.118;25.694;2023-05-18T05:12:44;14.95;;;11.98;;
33844;SDS011;20145;43.118;25.694;2023-05-18T05:15:10;16.10;;;11.77;;
33844;SDS011;20145;43.118;25.694;2023-05-18T05:17:36;13.98;;;11.60;;
33844;SDS011;20145;43.118;25.694;2023-05-18T05:20:02;15.27;;;10.50;;
33844;SDS011;20145;43.118;25.694;2023-05-18T05:22:28;15.02;;;10.98;;
33844;SDS011;20145;43.118;25.694;2023-05-18T05:24:54;18.42;;;10.40;;
33844;SDS011;20145;43.118;25.694;2023-05-18T05:27:19;15.90;;;10.88;;
33844;SDS011;20145;43.118;25.694;2023-05-18T05:29:46;12.63;;;9.75;;
33844;SDS011;20145;43.118;25.694;2023-05-18T05:32:12;18.75;;;10.18;;
33844;SDS011;20145;43.118;25.694;2023-05-18T05:34:38;14.95;;;10.93;;
33844;SDS011;20145;43.118;25.694;2023-05-18T05:37:04;17.60;;;10.30;;
33844;SDS011;20145;43.118;25.694;2023-05-18T05:39:30;17.23;;;8.95;;
33844;SDS011;20145;43.118;25.694;2023-05-18T05:41:56;13.52;;;8.55;;
33844;SDS011;20145;43.118;25.694;2023-05-18T05:44:21;15.27;;;8.35;;
33844;SDS011;20145;43.118;25.694;2023-05-18T05:46:47;15.35;;;8.48;;
33844;SDS011;20145;43.118;25.694;2023-05-18T05:49:12;11.63;;;8.05;;
33844;SDS011;20145;43.118;25.694;2023-05-18T05:51:38;12.40;;;8.52;;
33844;SDS011;20145;43.118;25.694;2023-05-18T05:54:03;11.57;;;9.23;;
33844;SDS011;20145;43.118;25.694;2023-05-18T05:56:29;12.48;;;10.90;;
33844;SDS011;20145;43.118;25.694;2023-05-18T05:58:55;18.70;;;13.07;;
33844;SDS011;20145;43.118;25.694;2023-05-18T06:01:20;16.35;;;13.80;;
33844;SDS011;20145;43.118;25.694;2023-05-18T06:03:46;18.02;;;14.45;;
33844;SDS011;20145;43.118;25.694;2023-05-18T06:06:13;16.17;;;12.73;;
33844;SDS011;20145;43.118;25.694;2023-05-18T06:08:38;14.90;;;11.77;;
33844;SDS011;20145;43.118;25.694;2023-05-18T06:11:05;13.25;;;8.98;;
33844;SDS011;20145;43.118;25.694;2023-05-18T06:13:30;14.45;;;9.80;;
33844;SDS011;20145;43.118;25.694;2023-05-18T06:15:56;18.80;;;9.93;;
33844;SDS011;20145;43.118;25.694;2023-05-18T06:18:22;15.65;;;11.18;;
33844;SDS011;20145;43.118;25.694;2023-05-18T06:20:48;16.17;;;10.30;;
33844;SDS011;20145;43.118;25.694;2023-05-18T06:23:14;18.85;;;10.57;;
33844;SDS011;20145;43.118;25.694;2023-05-18T06:25:40;13.43;;;10.57;;
33844;SDS011;20145;43.118;25.694;2023-05-18T06:28:05;15.93;;;10.23;;
33844;SDS011;20145;43.118;25.694;2023-05-18T06:30:31;20.48;;;10.00;;
33844;SDS011;20145;43.118;25.694;2023-05-18T06:32:56;15.32;;;11.13;;
33844;SDS011;20145;43.118;25.694;2023-05-18T06:35:22;13.88;;;8.63;;
33844;SDS011;20145;43.118;25.694;2023-05-18T06:37:49;12.80;;;8.50;;
33844;SDS011;20145;43.118;25.694;2023-05-18T06:40:14;13.85;;;8.32;;
33844;SDS011;20145;43.118;25.694;2023-05-18T06:42:40;14.23;;;8.77;;
33844;SDS011;20145;43.118;25.694;2023-05-18T06:45:05;17.42;;;10.35;;
33844;SDS011;20145;43.118;25.694;2023-05-18T06:47:31;14.68;;;8.88;;
33844;SDS011;20145;43.118;25.694;2023-05-18T06:49:57;10.50;;;8.00;;
33844;SDS011;20145;43.118;25.694;2023-05-18T06:52:23;14.07;;;8.95;;
33844;SDS011;20145;43.118;25.694;2023-05-18T06:54:48;11.93;;;8.43;;
33844;SDS011;20145;43.118;25.694;2023-05-18T06:57:14;12.63;;;8.23;;
33844;SDS011;20145;43.118;25.694;2023-05-18T06:59:39;15.80;;;8.50;;
33844;SDS011;20145;43.118;25.694;2023-05-18T07:02:05;12.38;;;7.78;;
33844;SDS011;20145;43.118;25.694;2023-05-18T07:04:30;13.20;;;7.90;;
33844;SDS011;20145;43.118;25.694;2023-05-18T07:06:57;15.93;;;8.02;;
33844;SDS011;20145;43.118;25.694;2023-05-18T07:09:23;13.13;;;8.20;;
33844;SDS011;20145;43.118;25.694;2023-05-18T07:11:49;16.75;;;10.02;;
33844;SDS011;20145;43.118;25.694;2023-05-18T07:14:15;14.77;;;9.13;;
33844;SDS011;20145;43.118;25.694;2023-05-18T07:16:41;10.93;;;8.88;;
33844;SDS011;20145;43.118;25.694;2023-05-18T07:19:08;37.70;;;24.52;;
33844;SDS011;20145;43.118;25.694;2023-05-18T07:21:33;29.10;;;18.10;;
33844;SDS011;20145;43.118;25.694;2023-05-18T07:23:59;24.05;;;18.00;;
33844;SDS011;20145;43.118;25.694;2023-05-18T07:26:25;15.07;;;12.70;;
33844;SDS011;20145;43.118;25.694;2023-05-18T07:28:50;14.73;;;11.85;;
33844;SDS011;20145;43.118;25.694;2023-05-18T07:31:16;18.70;;;12.60;;
33844;SDS011;20145;43.118;25.694;2023-05-18T07:33:45;13.10;;;11.40;;
33844;SDS011;20145;43.118;25.694;2023-05-18T07:36:11;16.10;;;10.60;;
33844;SDS011;20145;43.118;25.694;2023-05-18T07:38:37;16.20;;;11.27;;
33844;SDS011;20145;43.118;25.694;2023-05-18T07:41:03;14.25;;;11.05;;
33844;SDS011;20145;43.118;25.694;2023-05-18T07:43:38;12.27;;;10.40;;
33844;SDS011;20145;43.118;25.694;2023-05-18T07:46:04;13.60;;;11.05;;
33844;SDS011;20145;43.118;25.694;2023-05-18T07:48:29;13.98;;;11.40;;
33844;SDS011;20145;43.118;25.694;2023-05-18T07:50:55;14.07;;;9.88;;
33844;SDS011;20145;43.118;25.694;2023-05-18T07:53:21;18.15;;;11.25;;
33844;SDS011;20145;43.118;25.694;2023-05-18T07:55:46;13.95;;;11.18;;
33844;SDS011;20145;43.118;25.694;2023-05-18T07:58:13;15.85;;;11.60;;
33844;SDS011;20145;43.118;25.694;2023-05-18T08:00:39;18.00;;;13.25;;
33844;SDS011;20145;43.118;25.694;2023-05-18T08:03:05;20.73;;;13.45;;
33844;SDS011;20145;43.118;25.694;2023-05-18T08:05:31;19.33;;;13.18;;
33844;SDS011;20145;43.118;25.694;2023-05-18T08:07:57;16.80;;;12.60;;
33844;SDS011;20145;43.118;25.694;2023-05-18T08:10:22;22.20;;;13.40;;
33844;SDS011;20145;43.118;25.694;2023-05-18T08:12:48;18.73;;;13.50;;
33844;SDS011;20145;43.118;25.694;2023-05-18T08:15:13;17.38;;;12.02;;
33844;SDS011;20145;43.118;25.694;2023-05-18T08:17:39;18.48;;;12.65;;
33844;SDS011;20145;43.118;25.694;2023-05-18T08:20:05;15.18;;;11.65;;
33844;SDS011;20145;43.118;25.694;2023-05-18T08:22:32;16.48;;;11.02;;
33844;SDS011;20145;43.118;25.694;2023-05-18T08:24:57;12.57;;;10.32;;
33844;SDS011;20145;43.118;25.694;2023-05-18T08:27:25;14.80;;;9.73;;
33844;SDS011;20145;43.118;25.694;2023-05-18T08:29:50;14.90;;;8.13;;
33844;SDS011;20145;43.118;25.694;2023-05-18T08:32:16;14.65;;;8.07;;
33844;SDS011;20145;43.118;25.694;2023-05-18T08:34:41;10.15;;;7.88;;
33844;SDS011;20145;43.118;25.694;2023-05-18T08:37:07;10.65;;;7.25;;
33844;SDS011;20145;43.118;25.694;2023-05-18T08:39:33;13.95;;;7.13;;
33844;SDS011;20145;43.118;25.694;2023-05-18T08:42:01;9.82;;;7.63;;
33844;SDS011;20145;43.118;25.694;2023-05-18T08:44:45;9.57;;;7.63;;
33844;SDS011;20145;43.118;25.694;2023-05-18T08:47:16;9.15;;;6.85;;
33844;SDS011;20145;43.118;25.694;2023-05-18T08:49:41;8.90;;;7.97;;
33844;SDS011;20145;43.118;25.694;2023-05-18T08:52:08;11.63;;;8.85;;
33844;SDS011;20145;43.118;25.694;2023-05-18T08:54:35;12.40;;;8.35;;
33844;SDS011;20145;43.118;25.694;2023-05-18T08:57:03;15.05;;;8.73;;
33844;SDS011;20145;43.118;25.694;2023-05-18T08:59:34;11.88;;;8.77;;
33844;SDS011;20145;43.118;25.694;2023-05-18T09:02:03;10.30;;;8.95;;
33844;SDS011;20145;43.118;25.694;2023-05-18T09:04:29;11.80;;;9.63;;
33844;SDS011;20145;43.118;25.694;2023-05-18T09:06:58;14.07;;;9.70;;
33844;SDS011;20145;43.118;25.694;2023-05-18T09:09:26;16.52;;;10.02;;
33844;SDS011;20145;43.118;25.694;2023-05-18T09:11:53;15.00;;;8.63;;
33844;SDS011;20145;43.118;25.694;2023-05-18T09:14:20;11.63;;;8.23;;
33844;SDS011;20145;43.118;25.694;2023-05-18T09:16:50;10.23;;;7.93;;
33844;SDS011;20145;43.118;25.694;2023-05-18T09:19:17;10.90;;;8.80;;
33844;SDS011;20145;43.118;25.694;2023-05-18T09:21:42;12.52;;;7.65;;
33844;SDS011;20145;43.118;25.694;2023-05-18T09:24:08;10.45;;;7.72;;
33844;SDS011;20145;43.118;25.694;2023-05-18T09:26:33;7.93;;;7.07;;
33844;SDS011;20145;43.118;25.694;2023-05-18T09:28:59;13.88;;;6.65;;
33844;SDS011;20145;43.118;25.694;2023-05-18T09:31:25;8.15;;;6.50;;
33844;SDS011;20145;43.118;25.694;2023-05-18T09:33:51;8.18;;;6.35;;
33844;SDS011;20145;43.118;25.694;2023-05-18T09:36:22;13.98;;;7.35;;
33844;SDS011;20145;43.118;25.694;2023-05-18T09:38:48;8.63;;;6.35;;
33844;SDS011;20145;43.118;25.694;2023-05-18T09:41:16;9.40;;;6.15;;
33844;SDS011;20145;43.118;25.694;2023-05-18T09:43:43;8.85;;;5.55;;
33844;SDS011;20145;43.118;25.694;2023-05-18T09:46:10;11.55;;;6.43;;
33844;SDS011;20145;43.118;25.694;2023-05-18T09:48:40;8.40;;;5.60;;
33844;SDS011;20145;43.118;25.694;2023-05-18T09:51:09;10.15;;;6.03;;
33844;SDS011;20145;43.118;25.694;2023-05-18T09:53:38;7.93;;;5.05;;
33844;SDS011;20145;43.118;25.694;2023-05-18T09:56:04;6.38;;;4.95;;
33844;SDS011;20145;43.118;25.694;2023-05-18T09:58:33;8.63;;;4.80;;
33844;SDS011;20145;43.118;25.694;2023-05-18T10:01:00;6.40;;;3.97;;
33844;SDS011;20145;43.118;25.694;2023-05-18T10:03:30;5.35;;;2.80;;
33844;SDS011;20145;43.118;25.694;2023-05-18T10:06:04;7.45;;;3.67;;
33844;SDS011;20145;43.118;25.694;2023-05-18T10:08:30;6.95;;;3.58;;
33844;SDS011;20145;43.118;25.694;2023-05-18T10:10:57;8.77;;;4.60;;
33844;SDS011;20145;43.118;25.694;2023-05-18T10:13:24;7.07;;;3.63;;
33844;SDS011;20145;43.118;25.694;2023-05-18T10:15:53;9.25;;;4.00;;
33844;SDS011;20145;43.118;25.694;2023-05-18T10:18:21;10.30;;;4.28;;
33844;SDS011;20145;43.118;25.694;2023-05-18T10:20:49;4.72;;;3.97;;
33844;SDS011;20145;43.118;25.694;2023-05-18T10:23:16;8.35;;;3.97;;
33844;SDS011;20145;43.118;25.694;2023-05-18T10:25:44;12.30;;;4.95;;
33844;SDS011;20145;43.118;25.694;2023-05-18T10:28:10;7.70;;;4.93;;
33844;SDS011;20145;43.118;25.694;2023-05-18T10:30:39;4.88;;;4.38;;
33844;SDS011;20145;43.118;25.694;2023-05-18T10:33:08;6.50;;;5.13;;
33844;SDS011;20145;43.118;25.694;2023-05-18T10:35:35;10.48;;;5.07;;
33844;SDS011;20145;43.118;25.694;2023-05-18T10:38:02;6.95;;;4.85;;
33844;SDS011;20145;43.118;25.694;2023-05-18T10:40:30;6.13;;;4.47;;
33844;SDS011;20145;43.118;25.694;2023-05-18T10:42:58;5.18;;;4.57;;
33844;SDS011;20145;43.118;25.694;2023-05-18T10:45:27;8.00;;;4.50;;
33844;SDS011;20145;43.118;25.694;2023-05-18T10:47:57;6.75;;;4.53;;
33844;SDS011;20145;43.118;25.694;2023-05-18T10:50:25;8.40;;;4.80;;
33844;SDS011;20145;43.118;25.694;2023-05-18T10:52:52;6.38;;;4.60;;
33844;SDS011;20145;43.118;25.694;2023-05-18T10:55:17;7.80;;;5.70;;
33844;SDS011;20145;43.118;25.694;2023-05-18T10:57:48;11.23;;;5.35;;
33844;SDS011;20145;43.118;25.694;2023-05-18T11:00:20;9.07;;;6.00;;
33844;SDS011;20145;43.118;25.694;2023-05-18T11:02:46;6.25;;;4.90;;
33844;SDS011;20145;43.118;25.694;2023-05-18T11:05:13;8.65;;;5.50;;
33844;SDS011;20145;43.118;25.694;2023-05-18T11:07:39;7.57;;;5.75;;
33844;SDS011;20145;43.118;25.694;2023-05-18T11:10:09;6.22;;;5.35;;
33844;SDS011;20145;43.118;25.694;2023-05-18T11:12:38;9.05;;;5.68;;
33844;SDS011;20145;43.118;25.694;2023-05-18T11:15:05;14.10;;;5.60;;
33844;SDS011;20145;43.118;25.694;2023-05-18T11:17:31;9.13;;;5.82;;
33844;SDS011;20145;43.118;25.694;2023-05-18T11:22:41;13.40;;;5.72;;
33844;SDS011;20145;43.118;25.694;2023-05-18T11:28:05;8.38;;;4.45;;
33844;SDS011;20145;43.118;25.694;2023-05-18T11:33:07;6.43;;;4.10;;
33844;SDS011;20145;43.118;25.694;2023-05-18T11:36:02;6.43;;;3.95;;
33844;SDS011;20145;43.118;25.694;2023-05-18T11:41:30;7.40;;;3.90;;
33844;SDS011;20145;43.118;25.694;2023-05-18T11:46:36;7.20;;;3.95;;
33844;SDS011;20145;43.118;25.694;2023-05-18T11:49:02;8.00;;;4.00;;
33844;SDS011;20145;43.118;25.694;2023-05-18T11:51:32;6.68;;;4.32;;
33844;SDS011;20145;43.118;25.694;2023-05-18T11:53:58;8.68;;;4.80;;
33844;SDS011;20145;43.118;25.694;2023-05-18T11:56:25;8.18;;;5.15;;
33844;SDS011;20145;43.118;25.694;2023-05-18T11:59:10;7.07;;;4.45;;
33844;SDS011;20145;43.118;25.694;2023-05-18T12:01:39;7.10;;;5.35;;
33844;SDS011;20145;43.118;25.694;2023-05-18T12:04:07;7.57;;;4.68;;
33844;SDS011;20145;43.118;25.694;2023-05-18T12:06:33;6.68;;;4.85;;
33844;SDS011;20145;43.118;25.694;2023-05-18T12:08:59;6.38;;;5.05;;
33844;SDS011;20145;43.118;25.694;2023-05-18T12:11:26;8.63;;;5.53;;
33844;SDS011;20145;43.118;25.694;2023-05-18T12:13:52;7.93;;;4.72;;
33844;SDS011;20145;43.118;25.694;2023-05-18T12:16:18;6.80;;;5.00;;
33844;SDS011;20145;43.118;25.694;2023-05-18T12:18:48;8.38;;;5.03;;
33844;SDS011;20145;43.118;25.694;2023-05-18T12:21:19;6.00;;;4.25;;
33844;SDS011;20145;43.118;25.694;2023-05-18T12:23:55;5.72;;;4.45;;
33844;SDS011;20145;43.118;25.694;2023-05-18T12:26:24;6.32;;;4.25;;
33844;SDS011;20145;43.118;25.694;2023-05-18T12:28:53;12.52;;;8.85;;
33844;SDS011;20145;43.118;25.694;2023-05-18T12:31:19;5.97;;;3.58;;
33844;SDS011;20145;43.118;25.694;2023-05-18T12:33:45;5.25;;;4.15;;
33844;SDS011;20145;43.118;25.694;2023-05-18T12:36:11;6.00;;;3.55;;
33844;SDS011;20145;43.118;25.694;2023-05-18T12:38:37;5.63;;;3.38;;
33844;SDS011;20145;43.118;25.694;2023-05-18T12:41:03;5.65;;;4.05;;
33844;SDS011;20145;43.118;25.694;2023-05-18T12:43:34;6.28;;;3.25;;
33844;SDS011;20145;43.118;25.694;2023-05-18T12:46:03;6.30;;;3.65;;
33844;SDS011;20145;43.118;25.694;2023-05-18T12:48:36;7.85;;;3.17;;
33844;SDS011;20145;43.118;25.694;2023-05-18T12:51:02;3.55;;;2.75;;
33844;SDS011;20145;43.118;25.694;2023-05-18T12:53:49;5.93;;;3.30;;
33844;SDS011;20145;43.118;25.694;2023-05-18T12:56:14;6.75;;;3.60;;
33844;SDS011;20145;43.118;25.694;2023-05-18T12:58:40;7.68;;;3.20;;
33844;SDS011;20145;43.118;25.694;2023-05-18T13:01:19;6.57;;;3.70;;
33844;SDS011;20145;43.118;25.694;2023-05-18T13:03:45;9.68;;;3.45;;
33844;SDS011;20145;43.118;25.694;2023-05-18T13:06:11;6.63;;;3.30;;
33844;SDS011;20145;43.118;25.694;2023-05-18T13:08:36;5.18;;;3.60;;
33844;SDS011;20145;43.118;25.694;2023-05-18T13:11:02;3.95;;;3.20;;
33844;SDS011;20145;43.118;25.694;2023-05-18T13:13:29;10.85;;;3.88;;
33844;SDS011;20145;43.118;25.694;2023-05-18T13:15:55;9.43;;;3.92;;
33844;SDS011;20145;43.118;25.694;2023-05-18T13:18:24;5.53;;;2.97;;
33844;SDS011;20145;43.118;25.694;2023-05-18T13:20:52;9.10;;;3.97;;
33844;SDS011;20145;43.118;25.694;2023-05-18T13:25:52;7.85;;;4.03;;
33844;SDS011;20145;43.118;25.694;2023-05-18T13:28:19;6.95;;;4.22;;
33844;SDS011;20145;43.118;25.694;2023-05-18T13:30:46;6.80;;;4.72;;
33844;SDS011;20145;43.118;25.694;2023-05-18T13:33:13;10.02;;;4.22;;
33844;SDS011;20145;43.118;25.694;2023-05-18T13:35:43;7.75;;;4.13;;
33844;SDS011;20145;43.118;25.694;2023-05-18T13:38:10;6.43;;;4.03;;
33844;SDS011;20145;43.118;25.694;2023-05-18T13:40:37;6.57;;;3.97;;
33844;SDS011;20145;43.118;25.694;2023-05-18T13:43:03;7.15;;;4.15;;
33844;SDS011;20145;43.118;25.694;2023-05-18T13:45:33;8.70;;;4.38;;
33844;SDS011;20145;43.118;25.694;2023-05-18T13:47:59;5.68;;;4.25;;
33844;SDS011;20145;43.118;25.694;2023-05-18T13:50:25;5.60;;;4.05;;
33844;SDS011;20145;43.118;25.694;2023-05-18T13:52:51;7.50;;;4.70;;
33844;SDS011;20145;43.118;25.694;2023-05-18T13:55:17;6.78;;;4.93;;
33844;SDS011;20145;43.118;25.694;2023-05-18T13:57:43;6.70;;;4.68;;
33844;SDS011;20145;43.118;25.694;2023-05-18T14:00:10;5.50;;;3.95;;
33844;SDS011;20145;43.118;25.694;2023-05-18T14:02:41;8.77;;;3.93;;
33844;SDS011;20145;43.118;25.694;2023-05-18T14:05:08;5.05;;;3.90;;
33844;SDS011;20145;43.118;25.694;2023-05-18T14:07:35;7.53;;;3.97;;
33844;SDS011;20145;43.118;25.694;2023-05-18T14:10:02;9.02;;;4.38;;
33844;SDS011;20145;43.118;25.694;2023-05-18T14:12:28;5.10;;;4.47;;
33844;SDS011;20145;43.118;25.694;2023-05-18T14:14:53;11.77;;;7.35;;
33844;SDS011;20145;43.118;25.694;2023-05-18T14:17:19;26.42;;;18.92;;
33844;SDS011;20145;43.118;25.694;2023-05-18T14:19:45;23.63;;;14.45;;
33844;SDS011;20145;43.118;25.694;2023-05-18T14:22:10;31.90;;;19.92;;
33844;SDS011;20145;43.118;25.694;2023-05-18T14:24:36;15.73;;;11.20;;
33844;SDS011;20145;43.118;25.694;2023-05-18T14:27:01;16.48;;;10.65;;
33844;SDS011;20145;43.118;25.694;2023-05-18T14:29:27;14.07;;;7.70;;
33844;SDS011;20145;43.118;25.694;2023-05-18T14:31:52;8.98;;;5.90;;
33844;SDS011;20145;43.118;25.694;2023-05-18T14:34:18;11.68;;;9.05;;
33844;SDS011;20145;43.118;25.694;2023-05-18T14:36:44;9.50;;;6.22;;
33844;SDS011;20145;43.118;25.694;2023-05-18T14:39:10;7.03;;;4.50;;
33844;SDS011;20145;43.118;25.694;2023-05-18T14:41:36;5.30;;;3.42;;
33844;SDS011;20145;43.118;25.694;2023-05-18T14:44:01;9.63;;;4.10;;
33844;SDS011;20145;43.118;25.694;2023-05-18T14:46:33;6.63;;;3.72;;
33844;SDS011;20145;43.118;25.694;2023-05-18T14:48:59;5.72;;;3.65;;
33844;SDS011;20145;43.118;25.694;2023-05-18T14:51:24;6.60;;;3.60;;
33844;SDS011;20145;43.118;25.694;2023-05-18T14:53:50;5.50;;;3.30;;